createdAt,value
2019-03-25T00:00:31.091Z,2.88
2019-03-25T00:01:40.339Z,2.88
2019-03-25T00:02:44.804Z,2.84
2019-03-25T00:03:50.853Z,2.81
2019-03-25T00:04:55.316Z,2.81
2019-03-25T00:05:59.813Z,2.80
2019-03-25T00:07:04.272Z,2.80
2019-03-25T00:08:08.737Z,2.80
2019-03-25T00:09:13.202Z,2.83
2019-03-25T00:10:17.676Z,2.86
2019-03-25T00:11:22.158Z,2.89
2019-03-25T00:12:26.619Z,2.90
2019-03-25T00:13:31.523Z,2.94
2019-03-25T00:14:36.364Z,2.99
2019-03-25T00:15:40.828Z,3.03
2019-03-25T00:16:45.320Z,3.02
2019-03-25T00:17:49.785Z,3.03
2019-03-25T00:18:54.704Z,3.09
2019-03-25T00:19:59.166Z,3.11
2019-03-25T00:21:03.712Z,3.14
2019-03-25T00:22:08.196Z,3.19
2019-03-25T00:23:12.654Z,3.20
2019-03-25T00:24:17.127Z,3.17
2019-03-25T00:25:21.593Z,3.22
2019-03-25T00:26:26.077Z,3.22
2019-03-25T00:27:30.541Z,3.25
2019-03-25T00:28:35.012Z,3.30
2019-03-25T00:29:39.489Z,3.32
2019-03-25T00:30:43.955Z,3.32
2019-03-25T00:31:48.751Z,3.33
2019-03-25T00:32:53.212Z,3.35
2019-03-25T00:33:57.695Z,3.37
2019-03-25T00:35:02.153Z,3.39
2019-03-25T00:36:07.686Z,3.41
2019-03-25T00:37:13.311Z,3.47
2019-03-25T00:38:17.786Z,3.49
2019-03-25T00:39:22.616Z,3.48
2019-03-25T00:40:27.084Z,3.49
2019-03-25T00:41:31.932Z,3.46
2019-03-25T00:42:36.426Z,3.48
2019-03-25T00:43:40.895Z,3.53
2019-03-25T00:44:45.370Z,3.56
2019-03-25T00:45:49.837Z,3.58
2019-03-25T00:46:54.303Z,3.63
2019-03-25T00:47:59.119Z,3.73
2019-03-25T00:49:03.900Z,3.76
2019-03-25T00:50:08.701Z,3.79
2019-03-25T00:51:13.560Z,3.85
2019-03-25T00:52:18.895Z,3.85
2019-03-25T00:53:23.681Z,3.89
2019-03-25T00:54:29.498Z,3.91
2019-03-25T00:55:34.379Z,3.92
2019-03-25T00:56:38.844Z,3.89
2019-03-25T00:57:43.627Z,3.94
2019-03-25T00:58:48.097Z,3.96
2019-03-25T00:59:53.021Z,3.97
2019-03-25T01:00:57.484Z,4.00
2019-03-25T01:02:02.015Z,4.04
2019-03-25T01:03:06.586Z,4.03
2019-03-25T01:04:11.133Z,4.05
2019-03-25T01:05:16.033Z,4.07
2019-03-25T01:06:21.531Z,4.07
2019-03-25T01:07:26.302Z,4.11
2019-03-25T01:08:31.086Z,4.10
2019-03-25T01:09:35.551Z,4.09
2019-03-25T01:10:40.019Z,4.08
2019-03-25T01:11:49.142Z,4.10
2019-03-25T01:12:50.944Z,4.11
2019-03-25T01:13:55.803Z,4.16
2019-03-25T01:15:00.661Z,4.13
2019-03-25T01:16:05.184Z,4.16
2019-03-25T01:17:09.663Z,4.16
2019-03-25T01:18:17.049Z,4.15
2019-03-25T01:19:20.324Z,4.13
2019-03-25T01:20:24.963Z,4.12
2019-03-25T01:21:29.466Z,4.15
2019-03-25T01:22:34.269Z,4.12
2019-03-25T01:23:38.760Z,4.13
2019-03-25T01:24:43.232Z,4.11
2019-03-25T01:25:47.681Z,4.11
2019-03-25T01:26:53.767Z,4.11
2019-03-25T01:27:58.521Z,4.10
2019-03-25T01:29:03.381Z,4.09
2019-03-25T01:30:09.580Z,4.09
2019-03-25T01:31:14.046Z,4.09
2019-03-25T01:32:18.517Z,4.08
2019-03-25T01:33:22.991Z,4.07
2019-03-25T01:34:28.424Z,4.08
2019-03-25T01:35:32.879Z,4.06
2019-03-25T01:36:37.343Z,4.05
2019-03-25T01:37:41.825Z,4.06
2019-03-25T01:38:46.306Z,4.10
2019-03-25T01:39:50.786Z,4.08
2019-03-25T01:40:55.248Z,4.06
2019-03-25T01:41:59.709Z,4.04
2019-03-25T01:43:04.248Z,4.06
2019-03-25T01:44:08.731Z,4.06
2019-03-25T01:45:13.525Z,4.07
2019-03-25T01:46:17.991Z,4.05
2019-03-25T01:47:22.453Z,4.02
2019-03-25T01:48:27.268Z,4.03
2019-03-25T01:49:31.733Z,3.99
2019-03-25T01:50:36.605Z,3.98
2019-03-25T01:51:41.059Z,4.00
2019-03-25T01:52:45.834Z,4.04
2019-03-25T01:53:50.317Z,4.04
2019-03-25T01:54:55.186Z,4.04
2019-03-25T01:55:59.963Z,4.01
2019-03-25T01:57:04.724Z,3.99
2019-03-25T01:58:09.485Z,3.97
2019-03-25T01:59:13.970Z,3.97
2019-03-25T02:00:18.509Z,3.98
2019-03-25T02:01:22.971Z,3.99
2019-03-25T02:02:27.458Z,3.99
2019-03-25T02:03:31.939Z,3.99
2019-03-25T02:04:36.751Z,3.93
2019-03-25T02:05:41.244Z,3.92
2019-03-25T02:06:45.666Z,3.91
2019-03-25T02:07:50.484Z,3.90
2019-03-25T02:08:55.251Z,3.89
2019-03-25T02:10:00.200Z,3.88
2019-03-25T02:11:05.006Z,3.88
2019-03-25T02:12:09.534Z,3.85
2019-03-25T02:13:14.002Z,3.83
2019-03-25T02:14:18.485Z,3.81
2019-03-25T02:15:22.946Z,3.81
2019-03-25T02:16:27.409Z,3.78
2019-03-25T02:17:31.880Z,3.80
2019-03-25T02:18:36.360Z,3.76
2019-03-25T02:19:40.848Z,3.71
2019-03-25T02:20:45.313Z,3.72
2019-03-25T02:21:50.846Z,3.68
2019-03-25T02:22:55.470Z,3.67
2019-03-25T02:24:00.950Z,3.65
2019-03-25T02:25:08.582Z,3.62
2019-03-25T02:26:13.057Z,3.62
2019-03-25T02:27:17.586Z,3.55
2019-03-25T02:28:22.070Z,3.52
2019-03-25T02:29:26.572Z,3.56
2019-03-25T02:30:31.107Z,3.51
2019-03-25T02:31:35.643Z,3.51
2019-03-25T02:32:40.485Z,3.48
2019-03-25T02:33:45.306Z,3.46
2019-03-25T02:34:49.798Z,3.44
2019-03-25T02:35:54.275Z,3.39
2019-03-25T02:36:58.736Z,3.43
2019-03-25T02:38:03.596Z,3.39
2019-03-25T02:39:08.083Z,3.36
2019-03-25T02:40:12.612Z,3.29
2019-03-25T02:41:18.858Z,3.31
2019-03-25T02:42:23.266Z,3.31
2019-03-25T02:43:27.766Z,3.29
2019-03-25T02:44:32.252Z,3.29
2019-03-25T02:45:36.731Z,3.24
2019-03-25T02:46:41.190Z,3.22
2019-03-25T02:47:45.762Z,3.20
2019-03-25T02:48:50.194Z,3.18
2019-03-25T02:49:54.737Z,3.21
2019-03-25T02:50:59.201Z,3.17
2019-03-25T02:52:03.679Z,3.19
2019-03-25T02:53:08.137Z,3.15
2019-03-25T02:54:12.981Z,3.17
2019-03-25T02:55:17.840Z,3.15
2019-03-25T02:56:22.301Z,3.16
2019-03-25T02:57:26.759Z,3.16
2019-03-25T02:58:31.273Z,3.17
2019-03-25T02:59:36.058Z,3.23
2019-03-25T03:00:40.960Z,3.22
2019-03-25T03:01:45.488Z,3.24
2019-03-25T03:02:49.954Z,3.32
2019-03-25T03:03:54.414Z,3.35
2019-03-25T03:04:58.999Z,3.39
2019-03-25T03:06:03.427Z,3.41
2019-03-25T03:07:07.914Z,3.43
2019-03-25T03:08:12.386Z,3.41
2019-03-25T03:09:16.859Z,3.39
2019-03-25T03:10:21.350Z,3.39
2019-03-25T03:11:25.817Z,3.39
2019-03-25T03:12:30.291Z,3.36
2019-03-25T03:13:34.752Z,3.30
2019-03-25T03:14:39.222Z,3.29
2019-03-25T03:15:43.695Z,3.27
2019-03-25T03:16:48.154Z,3.22
2019-03-25T03:17:52.629Z,3.18
2019-03-25T03:18:57.096Z,3.15
2019-03-25T03:20:01.581Z,3.14
2019-03-25T03:21:06.095Z,3.12
2019-03-25T03:22:10.572Z,3.08
2019-03-25T03:23:15.035Z,3.05
2019-03-25T03:24:19.500Z,3.03
2019-03-25T03:25:23.995Z,3.00
2019-03-25T03:26:28.451Z,2.98
2019-03-25T03:27:32.914Z,2.95
2019-03-25T03:28:37.704Z,2.94
2019-03-25T03:29:42.171Z,2.94
2019-03-25T03:30:46.988Z,2.97
2019-03-25T03:31:51.776Z,2.93
2019-03-25T03:32:56.264Z,2.94
2019-03-25T03:34:00.790Z,2.92
2019-03-25T03:35:07.108Z,2.90
2019-03-25T03:36:11.587Z,2.91
2019-03-25T03:37:16.071Z,2.94
2019-03-25T03:38:20.521Z,2.97
2019-03-25T03:39:25.448Z,2.96
2019-03-25T03:40:30.309Z,2.91
2019-03-25T03:41:34.781Z,2.96
2019-03-25T03:42:39.243Z,2.97
2019-03-25T03:43:43.712Z,2.96
2019-03-25T03:44:48.201Z,2.94
2019-03-25T03:45:52.708Z,2.95
2019-03-25T03:46:57.201Z,2.98
2019-03-25T03:48:01.986Z,2.97
2019-03-25T03:49:06.455Z,3.01
2019-03-25T03:50:14.184Z,3.03
2019-03-25T03:51:18.646Z,3.05
2019-03-25T03:52:23.124Z,3.06
2019-03-25T03:53:27.587Z,3.09
2019-03-25T03:54:32.487Z,3.12
2019-03-25T03:55:39.180Z,3.16
2019-03-25T03:56:43.786Z,3.18
2019-03-25T03:57:48.333Z,3.19
2019-03-25T03:58:53.161Z,3.18
2019-03-25T03:59:57.913Z,3.18
2019-03-25T04:01:02.384Z,3.16
2019-03-25T04:02:07.272Z,3.16
2019-03-25T04:03:11.773Z,3.18
2019-03-25T04:04:16.214Z,3.15
2019-03-25T04:05:22.007Z,3.15
2019-03-25T04:06:26.499Z,3.13
2019-03-25T04:07:31.336Z,3.11
2019-03-25T04:08:35.802Z,3.12
2019-03-25T04:09:40.327Z,3.09
2019-03-25T04:10:44.822Z,3.09
2019-03-25T04:11:49.275Z,3.13
2019-03-25T04:12:54.077Z,3.14
2019-03-25T04:13:59.517Z,3.20
2019-03-25T04:15:06.116Z,3.23
2019-03-25T04:16:10.579Z,3.23
2019-03-25T04:17:15.046Z,3.27
2019-03-25T04:18:19.502Z,3.29
2019-03-25T04:19:24.328Z,3.30
2019-03-25T04:20:28.858Z,3.29
2019-03-25T04:21:33.649Z,3.31
2019-03-25T04:22:38.109Z,3.37
2019-03-25T04:23:42.571Z,3.42
2019-03-25T04:24:47.031Z,3.44
2019-03-25T04:25:51.926Z,3.44
2019-03-25T04:26:57.442Z,3.50
2019-03-25T04:28:01.903Z,3.53
2019-03-25T04:29:06.383Z,3.55
2019-03-25T04:30:11.020Z,3.57
2019-03-25T04:31:15.851Z,3.61
2019-03-25T04:32:20.317Z,3.65
2019-03-25T04:33:24.792Z,3.66
2019-03-25T04:34:29.543Z,3.69
2019-03-25T04:35:34.015Z,3.73
2019-03-25T04:36:38.499Z,3.75
2019-03-25T04:37:43.277Z,3.77
2019-03-25T04:38:47.741Z,3.76
2019-03-25T04:39:52.197Z,3.82
2019-03-25T04:40:56.658Z,3.82
2019-03-25T04:42:01.166Z,3.89
2019-03-25T04:43:06.096Z,3.93
2019-03-25T04:44:10.553Z,3.97
2019-03-25T04:45:16.087Z,3.99
2019-03-25T04:46:20.562Z,4.01
2019-03-25T04:47:25.429Z,4.05
2019-03-25T04:48:29.893Z,4.07
2019-03-25T04:49:34.658Z,4.10
2019-03-25T04:50:39.121Z,4.10
2019-03-25T04:51:44.885Z,4.13
2019-03-25T04:52:49.635Z,4.14
2019-03-25T04:53:54.485Z,4.18
2019-03-25T04:54:59.266Z,4.21
2019-03-25T04:56:03.736Z,4.24
2019-03-25T04:57:09.795Z,4.29
2019-03-25T04:58:14.412Z,4.30
2019-03-25T04:59:19.067Z,4.32
2019-03-25T05:00:37.107Z,4.31
2019-03-25T05:01:41.885Z,4.34
2019-03-25T05:02:46.421Z,4.37
2019-03-25T05:03:51.280Z,4.37
2019-03-25T05:04:56.027Z,4.41
2019-03-25T05:06:00.490Z,4.41
2019-03-25T05:07:05.340Z,4.44
2019-03-25T05:08:10.933Z,4.46
2019-03-25T05:09:15.398Z,4.52
2019-03-25T05:10:19.854Z,4.52
2019-03-25T05:11:30.535Z,4.50
2019-03-25T05:12:30.777Z,4.51
2019-03-25T05:13:35.966Z,4.51
2019-03-25T05:14:40.710Z,4.57
2019-03-25T05:15:45.526Z,4.58
2019-03-25T05:16:49.986Z,4.58
2019-03-25T05:17:54.621Z,4.57
2019-03-25T05:18:59.143Z,4.60
2019-03-25T05:20:04.274Z,4.59
2019-03-25T05:21:09.019Z,4.62
2019-03-25T05:22:13.510Z,4.62
2019-03-25T05:23:18.949Z,4.62
2019-03-25T05:24:23.838Z,4.61
2019-03-25T05:25:28.460Z,4.65
2019-03-25T05:26:32.918Z,4.65
2019-03-25T05:27:38.784Z,4.62
2019-03-25T05:28:43.544Z,4.65
2019-03-25T05:29:48.387Z,4.65
2019-03-25T05:30:52.972Z,4.65
2019-03-25T05:31:57.426Z,4.62
2019-03-25T05:33:02.203Z,4.65
2019-03-25T05:34:06.738Z,4.66
2019-03-25T05:35:11.697Z,4.66
2019-03-25T05:36:16.517Z,4.65
2019-03-25T05:37:21.146Z,4.65
2019-03-25T05:38:25.843Z,4.66
2019-03-25T05:39:30.647Z,4.65
2019-03-25T05:40:35.397Z,4.64
2019-03-25T05:41:39.859Z,4.66
2019-03-25T05:42:44.639Z,4.64
2019-03-25T05:43:49.099Z,4.64
2019-03-25T05:44:53.566Z,4.62
2019-03-25T05:45:58.025Z,4.64
2019-03-25T05:47:02.491Z,4.67
2019-03-25T05:48:06.984Z,4.64
2019-03-25T05:49:12.752Z,4.63
2019-03-25T05:50:17.226Z,4.68
2019-03-25T05:51:21.678Z,4.69
2019-03-25T05:52:26.163Z,4.72
2019-03-25T05:53:30.646Z,4.66
2019-03-25T05:54:35.529Z,4.70
2019-03-25T05:55:41.058Z,4.67
2019-03-25T05:56:45.787Z,4.67
2019-03-25T05:57:50.560Z,4.69
2019-03-25T05:58:55.308Z,4.67
2019-03-25T05:59:59.773Z,4.65
2019-03-25T06:01:04.691Z,4.61
2019-03-25T06:02:09.159Z,4.54
2019-03-25T06:03:13.641Z,4.47
2019-03-25T06:04:18.108Z,4.44
2019-03-25T06:05:22.564Z,4.34
2019-03-25T06:06:27.052Z,4.30
2019-03-25T06:07:31.517Z,4.24
2019-03-25T06:08:36.006Z,4.14
2019-03-25T06:09:40.467Z,4.00
2019-03-25T06:10:44.939Z,3.86
2019-03-25T06:11:49.406Z,3.83
2019-03-25T06:12:54.289Z,3.69
2019-03-25T06:13:58.741Z,3.57
2019-03-25T06:15:04.453Z,3.49
2019-03-25T06:16:08.926Z,3.08
2019-03-25T06:17:13.388Z,2.82
2019-03-25T06:18:20.368Z,2.56
2019-03-25T06:19:24.054Z,2.48
2019-03-25T06:20:29.263Z,2.44
2019-03-25T06:21:33.730Z,2.21
2019-03-25T06:22:38.176Z,2.16
2019-03-25T06:23:42.996Z,2.02
2019-03-25T06:24:47.899Z,1.99
2019-03-25T06:25:54.299Z,1.96
2019-03-25T06:26:58.762Z,1.93
2019-03-25T06:28:03.244Z,1.87
2019-03-25T06:29:08.230Z,1.80
2019-03-25T06:30:13.159Z,1.75
2019-03-25T06:31:17.628Z,1.80
2019-03-25T06:32:22.130Z,1.79
2019-03-25T06:33:26.682Z,1.80
2019-03-25T06:34:31.172Z,1.83
2019-03-25T06:35:36.011Z,1.82
2019-03-25T06:36:40.482Z,1.71
2019-03-25T06:37:44.957Z,1.72
2019-03-25T06:38:49.456Z,1.68
2019-03-25T06:39:53.923Z,1.70
2019-03-25T06:40:58.383Z,1.68
2019-03-25T06:42:03.231Z,1.72
2019-03-25T06:43:07.713Z,1.73
2019-03-25T06:44:12.172Z,1.76
2019-03-25T06:45:16.714Z,1.65
2019-03-25T06:46:22.331Z,1.65
2019-03-25T06:47:26.921Z,1.69
2019-03-25T06:48:31.403Z,1.67
2019-03-25T06:49:36.211Z,1.68
2019-03-25T06:50:40.678Z,1.59
2019-03-25T06:51:45.415Z,1.58
2019-03-25T06:52:49.927Z,1.63
2019-03-25T06:53:54.414Z,1.64
2019-03-25T06:54:58.878Z,1.65
2019-03-25T06:56:03.417Z,1.67
2019-03-25T06:57:07.878Z,1.59
2019-03-25T06:58:12.343Z,1.65
2019-03-25T06:59:16.829Z,1.61
2019-03-25T07:00:21.890Z,1.60
2019-03-25T07:01:26.802Z,1.64
2019-03-25T07:02:31.340Z,1.61
2019-03-25T07:03:35.838Z,1.63
2019-03-25T07:04:40.287Z,1.64
2019-03-25T07:05:45.162Z,1.64
2019-03-25T07:06:49.664Z,1.67
2019-03-25T07:07:54.186Z,1.65
2019-03-25T07:09:02.039Z,1.69
2019-03-25T07:10:07.753Z,1.69
2019-03-25T07:11:12.291Z,1.66
2019-03-25T07:12:17.327Z,1.72
2019-03-25T07:13:22.199Z,1.77
2019-03-25T07:14:27.476Z,1.79
2019-03-25T07:15:33.065Z,1.83
2019-03-25T07:16:37.540Z,1.82
2019-03-25T07:17:42.353Z,1.79
2019-03-25T07:18:46.837Z,1.81
2019-03-25T07:19:54.570Z,1.82
2019-03-25T07:20:59.040Z,1.85
2019-03-25T07:22:03.516Z,1.88
2019-03-25T07:23:08.395Z,1.90
2019-03-25T07:24:12.937Z,1.89
2019-03-25T07:25:17.414Z,1.92
2019-03-25T07:26:21.891Z,1.91
2019-03-25T07:27:36.270Z,1.95
2019-03-25T07:28:32.515Z,1.98
2019-03-25T07:29:37.002Z,2.03
2019-03-25T07:30:41.471Z,2.02
2019-03-25T07:31:45.952Z,2.07
2019-03-25T07:32:50.419Z,2.12
2019-03-25T07:33:55.248Z,2.11
2019-03-25T07:35:00.069Z,2.17
2019-03-25T07:36:05.212Z,2.23
2019-03-25T07:37:09.678Z,2.30
2019-03-25T07:38:14.158Z,2.33
2019-03-25T07:39:19.044Z,2.36
2019-03-25T07:40:23.512Z,2.41
2019-03-25T07:41:27.981Z,2.37
2019-03-25T07:42:32.456Z,2.46
2019-03-25T07:43:38.207Z,2.48
2019-03-25T07:44:42.709Z,2.52
2019-03-25T07:45:47.469Z,2.59
2019-03-25T07:46:52.262Z,2.65
2019-03-25T07:47:56.729Z,2.66
2019-03-25T07:49:01.203Z,2.69
2019-03-25T07:50:07.904Z,2.74
2019-03-25T07:51:12.367Z,2.78
2019-03-25T07:52:16.834Z,2.82
2019-03-25T07:53:21.301Z,2.84
2019-03-25T07:54:25.787Z,2.86
2019-03-25T07:55:30.567Z,2.87
2019-03-25T07:56:35.354Z,2.94
2019-03-25T07:57:48.333Z,2.97
2019-03-25T07:58:45.993Z,2.98
2019-03-25T07:59:50.491Z,2.94
2019-03-25T08:00:55.005Z,2.97
2019-03-25T08:01:59.890Z,2.97
2019-03-25T08:03:04.547Z,3.06
2019-03-25T08:04:09.009Z,3.11
2019-03-25T08:05:13.946Z,3.09
2019-03-25T08:06:18.415Z,3.18
2019-03-25T08:07:22.875Z,3.26
2019-03-25T08:08:27.653Z,3.33
2019-03-25T08:09:32.148Z,3.29
2019-03-25T08:10:36.955Z,3.34
2019-03-25T08:11:41.422Z,3.36
2019-03-25T08:12:45.883Z,3.40
2019-03-25T08:13:50.549Z,3.41
2019-03-25T08:14:55.390Z,3.54
2019-03-25T08:15:59.849Z,3.54
2019-03-25T08:17:04.331Z,3.50
2019-03-25T08:18:09.178Z,3.59
2019-03-25T08:19:13.654Z,3.62
2019-03-25T08:20:18.141Z,3.69
2019-03-25T08:21:24.972Z,3.68
2019-03-25T08:22:28.750Z,3.78
2019-03-25T08:23:33.517Z,3.76
2019-03-25T08:24:37.980Z,3.78
2019-03-25T08:25:42.772Z,3.83
2019-03-25T08:26:47.267Z,3.90
2019-03-25T08:27:59.838Z,3.96
2019-03-25T08:28:58.335Z,4.14
2019-03-25T08:30:05.626Z,4.17
2019-03-25T08:31:11.152Z,4.15
2019-03-25T08:32:15.608Z,4.31
2019-03-25T08:33:20.538Z,4.43
2019-03-25T08:34:25.000Z,4.47
2019-03-25T08:35:29.484Z,4.52
2019-03-25T08:36:33.962Z,4.62
2019-03-25T08:37:38.416Z,4.63
2019-03-25T08:38:42.875Z,4.60
2019-03-25T08:39:47.333Z,4.51
2019-03-25T08:40:51.811Z,4.50
2019-03-25T08:41:56.570Z,4.52
2019-03-25T08:43:01.038Z,4.38
2019-03-25T08:44:05.501Z,4.47
2019-03-25T08:45:10.490Z,4.57
2019-03-25T08:46:14.945Z,4.37
2019-03-25T08:47:19.409Z,4.41
2019-03-25T08:48:24.223Z,4.38
2019-03-25T08:49:28.690Z,4.49
2019-03-25T08:50:33.171Z,4.53
2019-03-25T08:51:37.629Z,4.50
2019-03-25T08:52:42.094Z,4.57
2019-03-25T08:53:46.555Z,4.52
2019-03-25T08:54:51.316Z,4.63
2019-03-25T08:55:55.799Z,4.56
2019-03-25T08:57:00.542Z,4.64
2019-03-25T08:58:12.050Z,4.67
2019-03-25T08:59:11.572Z,4.64
2019-03-25T09:00:16.576Z,4.76
2019-03-25T09:01:21.350Z,4.83
2019-03-25T09:02:25.875Z,4.84
2019-03-25T09:03:30.348Z,4.93
2019-03-25T09:04:34.800Z,4.94
2019-03-25T09:05:39.701Z,5.00
2019-03-25T09:06:44.229Z,5.01
2019-03-25T09:07:48.713Z,5.29
2019-03-25T09:08:53.177Z,5.19
2019-03-25T09:09:57.648Z,5.31
2019-03-25T09:11:02.492Z,5.43
2019-03-25T09:12:07.074Z,5.28
2019-03-25T09:13:11.920Z,5.37
2019-03-25T09:14:16.374Z,5.35
2019-03-25T09:15:20.914Z,5.38
2019-03-25T09:16:25.761Z,5.46
2019-03-25T09:17:31.289Z,5.42
2019-03-25T09:18:35.747Z,5.40
2019-03-25T09:19:40.209Z,5.46
2019-03-25T09:20:44.760Z,5.56
2019-03-25T09:21:49.220Z,5.62
2019-03-25T09:22:53.679Z,5.62
2019-03-25T09:23:58.808Z,5.62
2019-03-25T09:25:03.743Z,5.59
2019-03-25T09:26:09.180Z,5.82
2019-03-25T09:27:13.640Z,5.71
2019-03-25T09:28:24.139Z,5.66
2019-03-25T09:29:24.571Z,5.61
2019-03-25T09:30:55.054Z,5.62
2019-03-25T09:31:59.515Z,5.69
2019-03-25T09:33:04.253Z,5.86
2019-03-25T09:34:08.783Z,6.01
2019-03-25T09:35:13.804Z,6.18
2019-03-25T09:36:19.625Z,6.28
2019-03-25T09:37:24.101Z,6.20
2019-03-25T09:38:28.552Z,6.33
2019-03-25T09:39:33.007Z,6.39
2019-03-25T09:40:37.496Z,6.43
2019-03-25T09:41:43.229Z,6.50
2019-03-25T09:42:47.684Z,6.52
2019-03-25T09:43:52.207Z,6.47
2019-03-25T09:44:56.665Z,6.63
2019-03-25T09:46:01.159Z,6.62
2019-03-25T09:47:05.604Z,6.72
2019-03-25T09:48:10.062Z,6.73
2019-03-25T09:49:15.916Z,6.88
2019-03-25T09:50:20.443Z,7.05
2019-03-25T09:51:24.934Z,7.02
2019-03-25T09:52:38.109Z,6.88
2019-03-25T09:53:35.939Z,6.89
2019-03-25T09:54:40.410Z,6.75
2019-03-25T09:55:44.863Z,6.93
2019-03-25T09:56:49.348Z,7.00
2019-03-25T09:57:53.805Z,6.96
2019-03-25T09:58:58.269Z,6.97
2019-03-25T10:00:03.262Z,6.99
2019-03-25T10:01:07.802Z,7.21
2019-03-25T10:02:12.680Z,7.02
2019-03-25T10:03:17.199Z,6.92
2019-03-25T10:04:21.954Z,6.88
2019-03-25T10:05:26.409Z,6.90
2019-03-25T10:06:31.313Z,7.11
2019-03-25T10:07:35.766Z,6.98
2019-03-25T10:08:40.519Z,7.04
2019-03-25T10:09:45.300Z,7.01
2019-03-25T10:10:50.049Z,7.03
2019-03-25T10:11:54.907Z,7.04
2019-03-25T10:12:59.373Z,7.10
2019-03-25T10:14:04.811Z,6.84
2019-03-25T10:15:10.029Z,6.84
2019-03-25T10:16:14.606Z,6.90
2019-03-25T10:17:19.085Z,6.82
2019-03-25T10:18:23.541Z,6.75
2019-03-25T10:19:28.002Z,6.80
2019-03-25T10:20:32.698Z,6.69
2019-03-25T10:21:38.285Z,6.48
2019-03-25T10:22:43.215Z,6.54
2019-03-25T10:23:47.729Z,6.70
2019-03-25T10:24:52.155Z,6.67
2019-03-25T10:25:56.680Z,6.75
2019-03-25T10:27:01.163Z,6.83
2019-03-25T10:28:05.609Z,6.91
2019-03-25T10:29:10.061Z,6.99
2019-03-25T10:30:16.563Z,7.07
2019-03-25T10:31:21.031Z,6.99
2019-03-25T10:32:25.580Z,7.01
2019-03-25T10:33:30.030Z,7.14
2019-03-25T10:34:34.514Z,7.29
2019-03-25T10:35:39.272Z,7.40
2019-03-25T10:36:44.050Z,7.35
2019-03-25T10:37:48.563Z,7.43
2019-03-25T10:38:53.350Z,7.41
2019-03-25T10:39:57.809Z,7.95
2019-03-25T10:41:02.569Z,8.04
2019-03-25T10:42:07.050Z,8.10
2019-03-25T10:43:16.443Z,7.94
2019-03-25T10:44:22.522Z,7.82
2019-03-25T10:45:26.975Z,7.96
2019-03-25T10:46:31.428Z,7.68
2019-03-25T10:47:35.905Z,7.44
2019-03-25T10:48:40.362Z,7.36
2019-03-25T10:49:45.141Z,7.53
2019-03-25T10:50:49.960Z,7.59
2019-03-25T10:51:54.418Z,8.04
2019-03-25T10:52:58.903Z,8.16
2019-03-25T10:54:03.357Z,8.41
2019-03-25T10:55:08.185Z,8.35
2019-03-25T10:56:12.610Z,8.60
2019-03-25T10:57:17.369Z,8.81
2019-03-25T10:58:21.915Z,8.73
2019-03-25T10:59:26.707Z,8.62
2019-03-25T11:00:31.172Z,8.63
2019-03-25T11:01:35.697Z,8.80
2019-03-25T11:02:40.462Z,8.50
2019-03-25T11:03:44.939Z,8.37
2019-03-25T11:04:49.387Z,8.27
2019-03-25T11:05:53.874Z,8.18
2019-03-25T11:06:58.332Z,8.21
2019-03-25T11:08:02.816Z,7.72
2019-03-25T11:09:07.818Z,7.43
2019-03-25T11:10:14.357Z,7.60
2019-03-25T11:11:19.094Z,7.52
2019-03-25T11:12:23.849Z,7.30
2019-03-25T11:13:28.325Z,7.28
2019-03-25T11:14:32.789Z,7.30
2019-03-25T11:15:37.388Z,7.03
2019-03-25T11:16:41.837Z,6.67
2019-03-25T11:17:46.614Z,6.79
2019-03-25T11:18:51.067Z,6.78
2019-03-25T11:19:55.887Z,6.43
2019-03-25T11:21:00.643Z,6.20
2019-03-25T11:22:05.610Z,5.95
2019-03-25T11:23:10.084Z,5.76
2019-03-25T11:24:15.254Z,5.58
2019-03-25T11:25:19.855Z,5.44
2019-03-25T11:26:24.613Z,5.36
2019-03-25T11:27:29.056Z,5.37
2019-03-25T11:28:33.541Z,5.39
2019-03-25T11:29:38.288Z,5.38
2019-03-25T11:30:54.781Z,5.49
2019-03-25T11:31:59.596Z,5.62
2019-03-25T11:33:04.072Z,5.80
2019-03-25T11:34:08.526Z,5.76
2019-03-25T11:35:13.539Z,5.94
2019-03-25T11:36:17.994Z,5.89
2019-03-25T11:37:22.463Z,6.09
2019-03-25T11:38:27.248Z,6.21
2019-03-25T11:39:31.699Z,6.35
2019-03-25T11:40:36.453Z,6.48
2019-03-25T11:41:40.938Z,6.67
2019-03-25T11:42:45.382Z,7.08
2019-03-25T11:43:49.869Z,7.52
2019-03-25T11:44:55.299Z,7.76
2019-03-25T11:45:59.756Z,7.95
2019-03-25T11:47:04.216Z,7.86
2019-03-25T11:48:08.681Z,7.78
2019-03-25T11:49:13.175Z,7.85
2019-03-25T11:50:19.314Z,8.27
2019-03-25T11:51:25.554Z,8.42
2019-03-25T11:52:30.415Z,8.75
2019-03-25T11:53:35.338Z,9.02
2019-03-25T11:54:39.792Z,9.17
2019-03-25T11:55:45.300Z,9.41
2019-03-25T11:56:49.751Z,9.42
2019-03-25T11:57:54.203Z,9.08
2019-03-25T11:58:58.683Z,9.12
2019-03-25T12:00:03.140Z,8.65
2019-03-25T12:01:07.670Z,8.45
2019-03-25T12:02:17.538Z,8.09
2019-03-25T12:03:18.291Z,7.88
2019-03-25T12:04:22.859Z,7.74
2019-03-25T12:05:27.318Z,7.66
2019-03-25T12:06:32.868Z,7.76
2019-03-25T12:07:37.326Z,8.04
2019-03-25T12:08:42.095Z,8.65
2019-03-25T12:09:47.531Z,8.85
2019-03-25T12:10:52.050Z,9.08
2019-03-25T12:11:56.514Z,9.60
2019-03-25T12:13:01.326Z,9.44
2019-03-25T12:14:06.017Z,9.68
2019-03-25T12:15:11.546Z,10.11
2019-03-25T12:16:16.360Z,10.01
2019-03-25T12:17:20.837Z,9.80
2019-03-25T12:18:25.283Z,9.47
2019-03-25T12:19:29.760Z,9.23
2019-03-25T12:20:34.231Z,9.27
2019-03-25T12:21:39.024Z,8.96
2019-03-25T12:22:43.472Z,8.67
2019-03-25T12:23:48.021Z,8.51
2019-03-25T12:24:52.499Z,8.53
2019-03-25T12:25:56.945Z,8.23
2019-03-25T12:27:01.431Z,8.16
2019-03-25T12:28:05.889Z,8.14
2019-03-25T12:29:10.360Z,8.37
2019-03-25T12:30:14.951Z,8.62
2019-03-25T12:31:19.412Z,8.65
2019-03-25T12:32:23.861Z,8.67
2019-03-25T12:33:29.303Z,9.09
2019-03-25T12:34:33.827Z,9.27
2019-03-25T12:35:38.308Z,9.33
2019-03-25T12:36:43.108Z,9.87
2019-03-25T12:37:47.582Z,10.29
2019-03-25T12:38:52.037Z,10.59
2019-03-25T12:39:56.523Z,10.93
2019-03-25T12:41:01.010Z,11.21
2019-03-25T12:42:05.476Z,11.31
2019-03-25T12:43:09.992Z,11.33
2019-03-25T12:44:14.826Z,10.94
2019-03-25T12:45:19.260Z,10.97
2019-03-25T12:46:23.725Z,10.80
2019-03-25T12:47:28.489Z,11.17
2019-03-25T12:48:33.019Z,11.14
2019-03-25T12:49:37.790Z,10.99
2019-03-25T12:50:42.240Z,11.66
2019-03-25T12:51:48.437Z,11.66
2019-03-25T12:52:52.875Z,11.42
2019-03-25T12:53:57.617Z,11.36
2019-03-25T12:55:02.108Z,11.71
2019-03-25T12:56:06.632Z,11.68
2019-03-25T12:57:11.089Z,11.79
2019-03-25T12:58:15.874Z,11.84
2019-03-25T12:59:20.331Z,11.34
2019-03-25T13:00:41.839Z,10.78
2019-03-25T13:01:52.864Z,10.79
2019-03-25T13:02:52.453Z,10.16
2019-03-25T13:03:56.930Z,9.33
2019-03-25T13:05:01.400Z,8.24
2019-03-25T13:06:06.173Z,8.24
2019-03-25T13:07:10.937Z,8.10
2019-03-25T13:08:15.387Z,8.09
2019-03-25T13:09:21.180Z,7.95
2019-03-25T13:10:25.667Z,8.00
2019-03-25T13:11:30.410Z,8.08
2019-03-25T13:12:34.876Z,7.94
2019-03-25T13:13:39.326Z,7.96
2019-03-25T13:14:43.837Z,7.82
2019-03-25T13:15:48.323Z,7.94
2019-03-25T13:16:53.107Z,7.89
2019-03-25T13:17:57.598Z,8.03
2019-03-25T13:19:02.073Z,8.04
2019-03-25T13:20:07.687Z,8.12
2019-03-25T13:21:12.152Z,8.33
2019-03-25T13:22:16.592Z,8.45
2019-03-25T13:23:22.289Z,8.46
2019-03-25T13:24:27.049Z,8.50
2019-03-25T13:25:31.521Z,8.54
2019-03-25T13:26:36.039Z,8.34
2019-03-25T13:27:40.505Z,8.39
2019-03-25T13:28:44.955Z,8.45
2019-03-25T13:29:52.709Z,8.37
2019-03-25T13:30:56.057Z,8.24
2019-03-25T13:32:00.511Z,8.20
2019-03-25T13:33:04.971Z,8.11
2019-03-25T13:34:09.430Z,7.85
2019-03-25T13:35:13.899Z,7.52
2019-03-25T13:36:18.358Z,7.37
2019-03-25T13:37:22.827Z,7.02
2019-03-25T13:38:27.293Z,6.85
2019-03-25T13:39:31.749Z,6.74
2019-03-25T13:40:36.223Z,6.62
2019-03-25T13:41:40.701Z,6.52
2019-03-25T13:42:45.155Z,6.49
2019-03-25T13:43:49.919Z,6.38
2019-03-25T13:44:57.425Z,6.36
2019-03-25T13:46:05.367Z,6.34
2019-03-25T13:47:06.989Z,6.38
2019-03-25T13:48:11.443Z,6.35
2019-03-25T13:49:15.911Z,6.49
2019-03-25T13:50:20.383Z,6.60
2019-03-25T13:51:24.837Z,6.62
2019-03-25T13:52:29.293Z,6.56
2019-03-25T13:53:33.749Z,6.54
2019-03-25T13:54:38.205Z,6.64
2019-03-25T13:55:42.674Z,6.63
2019-03-25T13:56:47.135Z,6.79
2019-03-25T13:57:51.588Z,6.80
2019-03-25T13:58:56.050Z,6.86
2019-03-25T14:00:03.551Z,6.81
2019-03-25T14:01:07.868Z,6.88
2019-03-25T14:02:12.314Z,6.78
2019-03-25T14:03:16.769Z,6.71
2019-03-25T14:04:21.224Z,6.66
2019-03-25T14:05:25.688Z,6.69
2019-03-25T14:06:30.152Z,6.59
2019-03-25T14:07:34.939Z,6.56
2019-03-25T14:08:39.381Z,6.67
2019-03-25T14:09:43.861Z,6.66
2019-03-25T14:10:48.633Z,6.60
2019-03-25T14:11:53.493Z,6.70
2019-03-25T14:12:57.944Z,6.81
2019-03-25T14:14:02.400Z,6.79
2019-03-25T14:15:07.619Z,6.77
2019-03-25T14:16:12.078Z,6.70
2019-03-25T14:17:16.542Z,6.60
2019-03-25T14:18:20.998Z,6.51
2019-03-25T14:19:25.462Z,6.42
2019-03-25T14:20:30.911Z,6.41
2019-03-25T14:21:35.362Z,6.37